Rocky Mountain Metropolitan Airport
KBJC : now visible

Airfield :











YOU CAN JOIN US ON...

 
LOGIN :

Register | Disclaimer

   EN    FR    IT 

 









Legend :    VFR   Marginal VFR   IFR   Intensive IFR   Very Intensive IFR
Visi :
Ceiling :
>= 8 km
>= 3000ft
5 to 8 km
1000 to 3000 ft
1500m to 5 km
500 to 1000 ft
800 to 1500m
200 to 500 ft
< 800m
< 200 ft
Symbols :   Thunderstorms  Fog  Heavy snow  Heavy precipitations  Wind > 20 kt






- Airport Elevation : 5673 ft


KBJC - Rocky Mountain Metropolitan

CURRENT METAR :
  • 280630Z AUTO 29014G21KT 10SM SCT110 02/M11 A3006 RMK AO2

EXPIRED METARs :
  • 280612Z AUTO 28019G22KT 10SM SCT120 02/M11 A3006 RMK AO2
  • 280553Z AUTO 28016G21KT 10SM SCT100 BKN120 03/M11 A3006 RMK AO2 LTG DSNT SE
  • 280530Z AUTO 29012G16KT 10SM OVC095 03/M11 A3006 RMK AO2
  • 280512Z AUTO 28014KT 10SM BKN085 OVC110 03/M10 A3005 RMK AO2
  • 280430Z AUTO 31011KT 10SM BKN070 OVC085 03/M08 A3004 RMK AO2
  • 280412Z AUTO 31006KT 10SM OVC080 02/00 A3003 RMK AO2

TAF KBJC
Valid from the 28 at 06:00 until the 29 at 06:00 UTC


280537Z 2806/2906 29014KT P6SM BKN080 OVC150
FM280800 30010KT P6SM FEW100 BKN180
FM281300 VRB05KT P6SM SKC
FM281700 04008KT P6SM SKC
FM282200 07010KT P6SM SKC
FM290300 28010KT P6SM FEW180



MET'MAP, your aeronautical weather chart ! - Copyright ORBIFLY December 2007 - Disclaimer

ORBIFLY MET'MAP TEAM :

Programming & Development : Alexandra Zaïnal
Concept & original design : Baudouin d'Aumeries
Assistance for programming : Marc-Olivier Méhu
Technical & hardware support : Manuel Goepfert

Contact : metmap@orbifly.com




SOURCES & CREDITS :

   NOAA       Earth
Advisory